sensor_id;sensor_type;location;lat;lon;timestamp;pressure;altitude;pressure_sealevel;temperature;humidity
43804;BME280;29430;52.924;-2.388;2023-05-12T00:00:14;99794.53;;;11.19;98.65
43804;BME280;29430;52.924;-2.388;2023-05-12T00:05:07;99799.34;;;11.17;98.87
43804;BME280;29430;52.924;-2.388;2023-05-12T00:09:59;99798.72;;;11.15;99.09
43804;BME280;29430;52.924;-2.388;2023-05-12T00:14:50;99810.88;;;11.13;99.85
43804;BME280;29430;52.924;-2.388;2023-05-12T00:19:42;99816.75;;;11.09;99.79
43804;BME280;29430;52.924;-2.388;2023-05-12T00:24:34;99810.69;;;11.07;100.00
43804;BME280;29430;52.924;-2.388;2023-05-12T00:29:26;99820.09;;;11.05;100.00
43804;BME280;29430;52.924;-2.388;2023-05-12T00:34:17;99817.81;;;11.02;99.74
43804;BME280;29430;52.924;-2.388;2023-05-12T00:39:09;99821.81;;;10.99;99.96
43804;BME280;29430;52.924;-2.388;2023-05-12T00:44:01;99823.50;;;10.93;99.55
43804;BME280;29430;52.924;-2.388;2023-05-12T00:48:52;99820.41;;;10.90;99.09
43804;BME280;29430;52.924;-2.388;2023-05-12T00:53:44;99823.53;;;10.87;99.20
43804;BME280;29430;52.924;-2.388;2023-05-12T00:58:40;99829.63;;;10.82;99.86
43804;BME280;29430;52.924;-2.388;2023-05-12T01:03:32;99832.97;;;10.78;99.50
43804;BME280;29430;52.924;-2.388;2023-05-12T01:08:24;99837.59;;;10.70;99.03
43804;BME280;29430;52.924;-2.388;2023-05-12T01:13:16;99841.00;;;10.59;99.69
43804;BME280;29430;52.924;-2.388;2023-05-12T01:18:09;99849.97;;;10.53;100.00
43804;BME280;29430;52.924;-2.388;2023-05-12T01:23:02;99855.44;;;10.46;100.00
43804;BME280;29430;52.924;-2.388;2023-05-12T01:27:55;99862.53;;;10.41;100.00
43804;BME280;29430;52.924;-2.388;2023-05-12T01:32:47;99877.59;;;10.36;100.00
43804;BME280;29430;52.924;-2.388;2023-05-12T01:37:39;99873.41;;;10.34;100.00
43804;BME280;29430;52.924;-2.388;2023-05-12T01:42:30;99883.63;;;10.32;100.00
43804;BME280;29430;52.924;-2.388;2023-05-12T01:47:22;99894.06;;;10.35;100.00
43804;BME280;29430;52.924;-2.388;2023-05-12T01:52:14;99896.16;;;10.39;100.00
43804;BME280;29430;52.924;-2.388;2023-05-12T01:57:05;99903.66;;;10.44;100.00
43804;BME280;29430;52.924;-2.388;2023-05-12T02:01:57;99903.00;;;10.49;100.00
43804;BME280;29430;52.924;-2.388;2023-05-12T02:06:48;99905.72;;;10.49;100.00
43804;BME280;29430;52.924;-2.388;2023-05-12T02:11:40;99915.31;;;10.45;100.00
43804;BME280;29430;52.924;-2.388;2023-05-12T02:16:32;99910.75;;;10.38;100.00
43804;BME280;29430;52.924;-2.388;2023-05-12T02:21:23;99914.09;;;10.34;100.00
43804;BME280;29430;52.924;-2.388;2023-05-12T02:26:15;99915.28;;;10.31;100.00
43804;BME280;29430;52.924;-2.388;2023-05-12T02:31:07;99917.59;;;10.28;100.00
43804;BME280;29430;52.924;-2.388;2023-05-12T02:35:59;99921.78;;;10.24;100.00
43804;BME280;29430;52.924;-2.388;2023-05-12T02:40:50;99924.28;;;10.18;100.00
43804;BME280;29430;52.924;-2.388;2023-05-12T02:45:42;99917.81;;;10.13;100.00
43804;BME280;29430;52.924;-2.388;2023-05-12T02:50:34;99917.63;;;10.08;100.00
43804;BME280;29430;52.924;-2.388;2023-05-12T02:55:25;99918.69;;;10.00;100.00
43804;BME280;29430;52.924;-2.388;2023-05-12T03:00:20;99917.41;;;9.96;100.00
43804;BME280;29430;52.924;-2.388;2023-05-12T03:05:12;99927.84;;;9.92;100.00
43804;BME280;29430;52.924;-2.388;2023-05-12T03:10:04;99945.56;;;9.88;100.00
43804;BME280;29430;52.924;-2.388;2023-05-12T03:14:56;99931.81;;;9.83;100.00
43804;BME280;29430;52.924;-2.388;2023-05-12T03:19:47;99934.09;;;9.79;100.00
43804;BME280;29430;52.924;-2.388;2023-05-12T03:24:39;99934.53;;;9.76;100.00
43804;BME280;29430;52.924;-2.388;2023-05-12T03:29:31;99943.88;;;9.74;100.00
43804;BME280;29430;52.924;-2.388;2023-05-12T03:34:22;99938.88;;;9.71;100.00
43804;BME280;29430;52.924;-2.388;2023-05-12T03:39:14;99943.03;;;9.66;100.00
43804;BME280;29430;52.924;-2.388;2023-05-12T03:44:06;99941.38;;;9.65;100.00
43804;BME280;29430;52.924;-2.388;2023-05-12T03:48:59;99945.75;;;9.66;100.00
43804;BME280;29430;52.924;-2.388;2023-05-12T03:53:50;99955.13;;;9.64;100.00
43804;BME280;29430;52.924;-2.388;2023-05-12T03:58:43;99949.47;;;9.59;100.00
43804;BME280;29430;52.924;-2.388;2023-05-12T04:03:36;99963.44;;;9.56;100.00
43804;BME280;29430;52.924;-2.388;2023-05-12T04:08:28;99975.72;;;9.52;100.00
43804;BME280;29430;52.924;-2.388;2023-05-12T04:13:20;99990.09;;;9.52;100.00
43804;BME280;29430;52.924;-2.388;2023-05-12T04:18:12;99989.25;;;9.52;100.00
43804;BME280;29430;52.924;-2.388;2023-05-12T04:23:03;99985.50;;;9.53;100.00
43804;BME280;29430;52.924;-2.388;2023-05-12T04:27:55;99989.47;;;9.50;100.00
43804;BME280;29430;52.924;-2.388;2023-05-12T04:32:47;100007.78;;;9.48;100.00
43804;BME280;29430;52.924;-2.388;2023-05-12T04:37:39;100012.16;;;9.49;100.00
43804;BME280;29430;52.924;-2.388;2023-05-12T04:42:30;100009.25;;;9.50;100.00
43804;BME280;29430;52.924;-2.388;2023-05-12T04:47:22;100024.88;;;9.55;100.00
43804;BME280;29430;52.924;-2.388;2023-05-12T04:52:14;100028.88;;;9.59;100.00
43804;BME280;29430;52.924;-2.388;2023-05-12T04:57:05;100029.69;;;9.60;100.00
43804;BME280;29430;52.924;-2.388;2023-05-12T05:01:57;100035.94;;;9.60;100.00
43804;BME280;29430;52.924;-2.388;2023-05-12T05:06:49;100035.53;;;9.63;100.00
43804;BME280;29430;52.924;-2.388;2023-05-12T05:11:40;100037.81;;;9.66;100.00
43804;BME280;29430;52.924;-2.388;2023-05-12T05:16:32;100050.34;;;9.67;100.00
43804;BME280;29430;52.924;-2.388;2023-05-12T05:21:24;100056.63;;;9.75;100.00
43804;BME280;29430;52.924;-2.388;2023-05-12T05:26:15;100062.66;;;9.83;100.00
43804;BME280;29430;52.924;-2.388;2023-05-12T05:31:07;100069.16;;;9.89;100.00
43804;BME280;29430;52.924;-2.388;2023-05-12T05:35:59;100077.06;;;9.91;100.00
43804;BME280;29430;52.924;-2.388;2023-05-12T05:40:50;100085.63;;;9.88;100.00
43804;BME280;29430;52.924;-2.388;2023-05-12T05:45:44;100084.59;;;9.95;100.00
43804;BME280;29430;52.924;-2.388;2023-05-12T05:50:36;100090.06;;;10.09;100.00
43804;BME280;29430;52.924;-2.388;2023-05-12T05:55:28;100105.69;;;10.20;100.00
43804;BME280;29430;52.924;-2.388;2023-05-12T06:00:20;100111.13;;;10.27;100.00
43804;BME280;29430;52.924;-2.388;2023-05-12T06:05:11;100114.50;;;10.29;100.00
43804;BME280;29430;52.924;-2.388;2023-05-12T06:10:05;100118.47;;;10.33;100.00
43804;BME280;29430;52.924;-2.388;2023-05-12T06:14:57;100120.72;;;10.29;100.00
43804;BME280;29430;52.924;-2.388;2023-05-12T06:19:48;100120.56;;;10.37;100.00
43804;BME280;29430;52.924;-2.388;2023-05-12T06:24:40;100128.72;;;10.64;100.00
43804;BME280;29430;52.924;-2.388;2023-05-12T06:29:32;100141.66;;;10.96;100.00
43804;BME280;29430;52.924;-2.388;2023-05-12T06:34:24;100144.09;;;11.31;100.00
43804;BME280;29430;52.924;-2.388;2023-05-12T06:39:16;100155.72;;;11.71;100.00
43804;BME280;29430;52.924;-2.388;2023-05-12T06:44:07;100160.03;;;11.86;99.62
43804;BME280;29430;52.924;-2.388;2023-05-12T06:49:03;100164.66;;;11.85;97.01
43804;BME280;29430;52.924;-2.388;2023-05-12T06:53:54;100175.34;;;11.73;98.05
43804;BME280;29430;52.924;-2.388;2023-05-12T06:58:46;100164.31;;;11.68;98.51
43804;BME280;29430;52.924;-2.388;2023-05-12T07:03:38;100170.97;;;11.72;98.62
43804;BME280;29430;52.924;-2.388;2023-05-12T07:08:30;100160.44;;;11.89;98.05
43804;BME280;29430;52.924;-2.388;2023-05-12T07:13:21;100163.66;;;12.25;97.52
43804;BME280;29430;52.924;-2.388;2023-05-12T07:18:13;100171.25;;;12.48;96.51
43804;BME280;29430;52.924;-2.388;2023-05-12T07:23:04;100169.78;;;12.77;96.29
43804;BME280;29430;52.924;-2.388;2023-05-12T07:27:56;100181.97;;;13.00;94.03
43804;BME280;29430;52.924;-2.388;2023-05-12T07:32:48;100179.69;;;12.97;93.40
43804;BME280;29430;52.924;-2.388;2023-05-12T07:37:40;100186.16;;;13.02;93.67
43804;BME280;29430;52.924;-2.388;2023-05-12T07:42:31;100177.03;;;13.15;93.47
43804;BME280;29430;52.924;-2.388;2023-05-12T07:47:23;100192.31;;;13.41;92.36
43804;BME280;29430;52.924;-2.388;2023-05-12T07:52:15;100193.84;;;13.56;90.97
43804;BME280;29430;52.924;-2.388;2023-05-12T07:57:06;100200.16;;;13.56;88.89
43804;BME280;29430;52.924;-2.388;2023-05-12T08:01:58;100202.09;;;13.49;89.30
43804;BME280;29430;52.924;-2.388;2023-05-12T08:06:49;100201.63;;;13.34;88.85
43804;BME280;29430;52.924;-2.388;2023-05-12T08:11:41;100201.91;;;13.19;90.91
43804;BME280;29430;52.924;-2.388;2023-05-12T08:16:37;100204.16;;;13.29;91.50
43804;BME280;29430;52.924;-2.388;2023-05-12T08:21:30;100203.94;;;13.55;89.72
43804;BME280;29430;52.924;-2.388;2023-05-12T08:26:22;100196.53;;;13.81;90.29
43804;BME280;29430;52.924;-2.388;2023-05-12T08:31:15;100205.66;;;14.54;88.11
43804;BME280;29430;52.924;-2.388;2023-05-12T08:36:07;100214.81;;;14.78;81.48
43804;BME280;29430;52.924;-2.388;2023-05-12T08:41:15;100217.94;;;14.63;82.56
43804;BME280;29430;52.924;-2.388;2023-05-12T08:46:10;100222.13;;;14.78;83.73
43804;BME280;29430;52.924;-2.388;2023-05-12T08:51:05;100213.63;;;14.86;85.05
43804;BME280;29430;52.924;-2.388;2023-05-12T08:56:02;100223.44;;;15.41;79.90
43804;BME280;29430;52.924;-2.388;2023-05-12T09:00:58;100226.13;;;16.00;78.86
43804;BME280;29430;52.924;-2.388;2023-05-12T09:05:51;100225.53;;;16.39;78.88
43804;BME280;29430;52.924;-2.388;2023-05-12T09:10:42;100216.25;;;16.97;78.55
43804;BME280;29430;52.924;-2.388;2023-05-12T09:15:38;100212.63;;;18.04;73.87
43804;BME280;29430;52.924;-2.388;2023-05-12T09:20:31;100213.88;;;18.90;68.34
43804;BME280;29430;52.924;-2.388;2023-05-12T09:25:23;100212.91;;;19.39;61.65
43804;BME280;29430;52.924;-2.388;2023-05-12T09:30:15;100222.84;;;19.88;59.06
43804;BME280;29430;52.924;-2.388;2023-05-12T09:35:08;100224.25;;;19.95;61.67
43804;BME280;29430;52.924;-2.388;2023-05-12T09:40:06;100215.63;;;19.76;60.96
43804;BME280;29430;52.924;-2.388;2023-05-12T09:45:06;100220.34;;;19.81;57.94
43804;BME280;29430;52.924;-2.388;2023-05-12T09:50:00;100222.47;;;19.74;58.82
43804;BME280;29430;52.924;-2.388;2023-05-12T09:54:53;100216.97;;;19.74;59.59
43804;BME280;29430;52.924;-2.388;2023-05-12T09:59:45;100215.00;;;19.69;60.43
43804;BME280;29430;52.924;-2.388;2023-05-12T10:04:48;100215.31;;;19.73;58.31
43804;BME280;29430;52.924;-2.388;2023-05-12T10:09:41;100217.59;;;19.81;58.97
43804;BME280;29430;52.924;-2.388;2023-05-12T10:14:34;100209.28;;;19.76;60.16
43804;BME280;29430;52.924;-2.388;2023-05-12T10:19:30;100210.34;;;20.17;56.09
43804;BME280;29430;52.924;-2.388;2023-05-12T10:24:27;100214.47;;;20.20;54.70
43804;BME280;29430;52.924;-2.388;2023-05-12T10:29:19;100214.78;;;20.29;56.33
43804;BME280;29430;52.924;-2.388;2023-05-12T10:34:16;100212.72;;;20.72;54.36
43804;BME280;29430;52.924;-2.388;2023-05-12T10:39:12;100213.03;;;21.17;54.46
43804;BME280;29430;52.924;-2.388;2023-05-12T10:44:05;100209.97;;;21.23;51.71
43804;BME280;29430;52.924;-2.388;2023-05-12T10:49:02;100214.91;;;20.65;55.77
43804;BME280;29430;52.924;-2.388;2023-05-12T10:53:59;100218.50;;;20.70;56.47
43804;BME280;29430;52.924;-2.388;2023-05-12T10:59:11;100205.84;;;20.90;55.41
43804;BME280;29430;52.924;-2.388;2023-05-12T11:04:09;100217.09;;;20.68;54.28
43804;BME280;29430;52.924;-2.388;2023-05-12T11:09:01;100211.56;;;20.57;54.58
43804;BME280;29430;52.924;-2.388;2023-05-12T11:13:53;100219.63;;;20.80;54.20
43804;BME280;29430;52.924;-2.388;2023-05-12T11:18:45;100208.88;;;21.40;55.85
43804;BME280;29430;52.924;-2.388;2023-05-12T11:23:37;100214.13;;;21.16;52.92
43804;BME280;29430;52.924;-2.388;2023-05-12T11:28:38;100214.69;;;20.87;54.71
43804;BME280;29430;52.924;-2.388;2023-05-12T11:33:30;100213.81;;;20.66;54.29
43804;BME280;29430;52.924;-2.388;2023-05-12T11:38:22;100224.88;;;20.08;54.56
43804;BME280;29430;52.924;-2.388;2023-05-12T11:43:19;100224.81;;;19.49;56.27
43804;BME280;29430;52.924;-2.388;2023-05-12T11:48:12;100224.88;;;19.22;57.38
43804;BME280;29430;52.924;-2.388;2023-05-12T11:53:09;100233.00;;;19.07;57.99
43804;BME280;29430;52.924;-2.388;2023-05-12T11:58:02;100243.06;;;18.96;59.39
43804;BME280;29430;52.924;-2.388;2023-05-12T12:03:07;100241.66;;;18.93;59.35
43804;BME280;29430;52.924;-2.388;2023-05-12T12:08:13;100233.13;;;18.90;60.67
43804;BME280;29430;52.924;-2.388;2023-05-12T12:13:05;100246.19;;;18.83;60.66
43804;BME280;29430;52.924;-2.388;2023-05-12T12:17:57;100241.84;;;18.59;61.34
43804;BME280;29430;52.924;-2.388;2023-05-12T12:22:49;100260.72;;;18.51;61.42
43804;BME280;29430;52.924;-2.388;2023-05-12T12:27:41;100258.75;;;18.46;61.87
43804;BME280;29430;52.924;-2.388;2023-05-12T12:32:32;100256.25;;;18.45;61.15
43804;BME280;29430;52.924;-2.388;2023-05-12T12:37:24;100265.69;;;18.10;62.75
43804;BME280;29430;52.924;-2.388;2023-05-12T12:42:16;100271.06;;;18.21;63.74
43804;BME280;29430;52.924;-2.388;2023-05-12T12:47:07;100283.13;;;18.20;60.29
43804;BME280;29430;52.924;-2.388;2023-05-12T12:51:59;100288.72;;;18.08;60.43
43804;BME280;29430;52.924;-2.388;2023-05-12T12:56:51;100290.50;;;17.98;59.96
43804;BME280;29430;52.924;-2.388;2023-05-12T13:01:43;100289.13;;;17.95;60.30
43804;BME280;29430;52.924;-2.388;2023-05-12T13:06:35;100301.66;;;17.74;59.61
43804;BME280;29430;52.924;-2.388;2023-05-12T13:11:26;100303.41;;;17.63;60.00
43804;BME280;29430;52.924;-2.388;2023-05-12T13:16:18;100301.19;;;17.43;60.93
43804;BME280;29430;52.924;-2.388;2023-05-12T13:21:10;100304.09;;;17.36;60.42
43804;BME280;29430;52.924;-2.388;2023-05-12T13:26:01;100313.56;;;17.29;61.17
43804;BME280;29430;52.924;-2.388;2023-05-12T13:30:53;100312.13;;;17.26;62.86
43804;BME280;29430;52.924;-2.388;2023-05-12T13:35:45;100309.19;;;17.16;65.01
43804;BME280;29430;52.924;-2.388;2023-05-12T13:40:37;100311.72;;;16.89;67.82
43804;BME280;29430;52.924;-2.388;2023-05-12T13:45:28;100305.03;;;16.85;65.85
43804;BME280;29430;52.924;-2.388;2023-05-12T13:50:20;100312.19;;;16.86;64.33
43804;BME280;29430;52.924;-2.388;2023-05-12T13:55:12;100318.13;;;16.94;63.59
43804;BME280;29430;52.924;-2.388;2023-05-12T14:00:12;100312.41;;;16.96;63.43
43804;BME280;29430;52.924;-2.388;2023-05-12T14:05:04;100305.84;;;16.97;62.73
43804;BME280;29430;52.924;-2.388;2023-05-12T14:09:56;100315.84;;;17.03;64.00
43804;BME280;29430;52.924;-2.388;2023-05-12T14:14:48;100320.88;;;16.94;64.08
43804;BME280;29430;52.924;-2.388;2023-05-12T14:19:40;100316.13;;;16.90;64.47
43804;BME280;29430;52.924;-2.388;2023-05-12T14:24:32;100320.81;;;17.06;65.30
43804;BME280;29430;52.924;-2.388;2023-05-12T14:29:23;100321.25;;;17.15;63.93
43804;BME280;29430;52.924;-2.388;2023-05-12T14:34:15;100320.56;;;17.08;63.25
43804;BME280;29430;52.924;-2.388;2023-05-12T14:39:07;100320.13;;;16.99;63.86
43804;BME280;29430;52.924;-2.388;2023-05-12T14:44:00;100322.88;;;16.99;63.92
43804;BME280;29430;52.924;-2.388;2023-05-12T14:48:52;100328.34;;;16.99;65.16
43804;BME280;29430;52.924;-2.388;2023-05-12T14:53:43;100329.03;;;17.06;65.02
43804;BME280;29430;52.924;-2.388;2023-05-12T14:58:35;100315.66;;;17.10;64.05
43804;BME280;29430;52.924;-2.388;2023-05-12T15:03:27;100324.63;;;17.05;62.56
43804;BME280;29430;52.924;-2.388;2023-05-12T15:08:19;100322.25;;;16.68;64.09
43804;BME280;29430;52.924;-2.388;2023-05-12T15:13:12;100321.13;;;16.52;65.35
43804;BME280;29430;52.924;-2.388;2023-05-12T15:18:06;100329.53;;;16.62;64.68
43804;BME280;29430;52.924;-2.388;2023-05-12T15:22:58;100325.88;;;16.57;63.99
43804;BME280;29430;52.924;-2.388;2023-05-12T15:27:50;100324.72;;;16.41;64.32
43804;BME280;29430;52.924;-2.388;2023-05-12T15:32:42;100319.16;;;16.24;65.33
43804;BME280;29430;52.924;-2.388;2023-05-12T15:37:36;100317.50;;;16.11;66.20
43804;BME280;29430;52.924;-2.388;2023-05-12T15:42:29;100328.31;;;16.18;67.12
43804;BME280;29430;52.924;-2.388;2023-05-12T15:47:23;100313.31;;;16.20;66.62
43804;BME280;29430;52.924;-2.388;2023-05-12T15:52:15;100311.19;;;16.10;67.40
43804;BME280;29430;52.924;-2.388;2023-05-12T15:57:07;100312.88;;;16.11;68.44
43804;BME280;29430;52.924;-2.388;2023-05-12T16:01:59;100314.66;;;16.06;67.76
43804;BME280;29430;52.924;-2.388;2023-05-12T16:06:51;100313.00;;;15.93;69.57
43804;BME280;29430;52.924;-2.388;2023-05-12T16:11:42;100312.50;;;15.84;69.85
43804;BME280;29430;52.924;-2.388;2023-05-12T16:16:35;100311.69;;;15.84;69.83
43804;BME280;29430;52.924;-2.388;2023-05-12T16:21:27;100319.19;;;15.88;69.67
43804;BME280;29430;52.924;-2.388;2023-05-12T16:26:19;100320.72;;;15.96;69.14
43804;BME280;29430;52.924;-2.388;2023-05-12T16:31:11;100323.22;;;15.98;69.01
43804;BME280;29430;52.924;-2.388;2023-05-12T16:36:04;100328.31;;;15.94;68.34
43804;BME280;29430;52.924;-2.388;2023-05-12T16:40:56;100335.94;;;15.92;69.48
43804;BME280;29430;52.924;-2.388;2023-05-12T16:45:57;100331.56;;;15.79;68.77
43804;BME280;29430;52.924;-2.388;2023-05-12T16:51:08;100323.66;;;15.59;69.57
43804;BME280;29430;52.924;-2.388;2023-05-12T16:56:00;100327.81;;;15.50;70.32
43804;BME280;29430;52.924;-2.388;2023-05-12T17:00:52;100326.00;;;15.44;70.47
43804;BME280;29430;52.924;-2.388;2023-05-12T17:05:44;100331.13;;;15.40;71.61
43804;BME280;29430;52.924;-2.388;2023-05-12T17:10:36;100336.59;;;15.40;72.07
43804;BME280;29430;52.924;-2.388;2023-05-12T17:15:29;100336.56;;;15.28;72.13
43804;BME280;29430;52.924;-2.388;2023-05-12T17:20:20;100330.22;;;15.16;71.23
43804;BME280;29430;52.924;-2.388;2023-05-12T17:25:13;100331.75;;;15.12;72.76
43804;BME280;29430;52.924;-2.388;2023-05-12T17:30:06;100327.50;;;15.16;72.97
43804;BME280;29430;52.924;-2.388;2023-05-12T17:34:58;100327.50;;;15.16;72.14
43804;BME280;29430;52.924;-2.388;2023-05-12T17:39:50;100339.25;;;15.16;72.29
43804;BME280;29430;52.924;-2.388;2023-05-12T17:44:42;100344.00;;;15.09;72.29
43804;BME280;29430;52.924;-2.388;2023-05-12T17:49:34;100352.13;;;14.97;71.98
43804;BME280;29430;52.924;-2.388;2023-05-12T17:54:25;100352.31;;;14.84;72.26
43804;BME280;29430;52.924;-2.388;2023-05-12T17:59:17;100349.31;;;14.74;73.00
43804;BME280;29430;52.924;-2.388;2023-05-12T18:04:09;100339.88;;;14.70;74.03
43804;BME280;29430;52.924;-2.388;2023-05-12T18:09:00;100351.97;;;14.62;74.07
43804;BME280;29430;52.924;-2.388;2023-05-12T18:13:53;100360.66;;;14.52;75.04
43804;BME280;29430;52.924;-2.388;2023-05-12T18:18:44;100353.97;;;14.48;74.97
43804;BME280;29430;52.924;-2.388;2023-05-12T18:23:37;100355.88;;;14.47;75.55
43804;BME280;29430;52.924;-2.388;2023-05-12T18:28:28;100372.50;;;14.46;75.41
43804;BME280;29430;52.924;-2.388;2023-05-12T18:33:20;100360.13;;;14.43;75.76
43804;BME280;29430;52.924;-2.388;2023-05-12T18:38:12;100373.63;;;14.38;74.52
43804;BME280;29430;52.924;-2.388;2023-05-12T18:43:04;100366.41;;;14.25;74.13
43804;BME280;29430;52.924;-2.388;2023-05-12T18:47:56;100373.59;;;14.20;74.64
43804;BME280;29430;52.924;-2.388;2023-05-12T18:52:48;100376.16;;;14.14;74.15
43804;BME280;29430;52.924;-2.388;2023-05-12T18:57:39;100382.50;;;14.08;73.94
43804;BME280;29430;52.924;-2.388;2023-05-12T19:02:31;100391.28;;;13.92;74.53
43804;BME280;29430;52.924;-2.388;2023-05-12T19:07:23;100390.56;;;13.78;75.54
43804;BME280;29430;52.924;-2.388;2023-05-12T19:12:15;100396.84;;;13.53;76.61
43804;BME280;29430;52.924;-2.388;2023-05-12T19:17:06;100404.03;;;13.41;77.04
43804;BME280;29430;52.924;-2.388;2023-05-12T19:21:58;100417.03;;;13.39;77.71
43804;BME280;29430;52.924;-2.388;2023-05-12T19:26:50;100420.66;;;13.26;78.69
43804;BME280;29430;52.924;-2.388;2023-05-12T19:31:41;100416.34;;;13.05;79.37
43804;BME280;29430;52.924;-2.388;2023-05-12T19:36:33;100422.66;;;12.99;80.03
43804;BME280;29430;52.924;-2.388;2023-05-12T19:41:28;100427.53;;;12.90;80.30
43804;BME280;29430;52.924;-2.388;2023-05-12T19:46:20;100431.13;;;12.77;80.60
43804;BME280;29430;52.924;-2.388;2023-05-12T19:51:12;100440.56;;;12.68;81.27
43804;BME280;29430;52.924;-2.388;2023-05-12T19:56:04;100444.78;;;12.64;81.50
43804;BME280;29430;52.924;-2.388;2023-05-12T20:00:55;100449.41;;;12.57;82.43
43804;BME280;29430;52.924;-2.388;2023-05-12T20:05:47;100449.63;;;12.48;82.81
43804;BME280;29430;52.924;-2.388;2023-05-12T20:10:39;100451.53;;;12.41;82.38
43804;BME280;29430;52.924;-2.388;2023-05-12T20:15:31;100460.34;;;12.30;81.66
43804;BME280;29430;52.924;-2.388;2023-05-12T20:20:24;100457.22;;;12.13;81.42
43804;BME280;29430;52.924;-2.388;2023-05-12T20:25:16;100470.19;;;11.97;81.90
43804;BME280;29430;52.924;-2.388;2023-05-12T20:30:09;100474.72;;;11.83;82.18
43804;BME280;29430;52.924;-2.388;2023-05-12T20:35:01;100482.44;;;11.73;82.63
43804;BME280;29430;52.924;-2.388;2023-05-12T20:39:53;100485.97;;;11.67;82.23
43804;BME280;29430;52.924;-2.388;2023-05-12T20:44:46;100489.53;;;11.61;82.20
43804;BME280;29430;52.924;-2.388;2023-05-12T20:49:38;100496.41;;;11.57;82.79
43804;BME280;29430;52.924;-2.388;2023-05-12T20:54:30;100491.78;;;11.51;82.93
43804;BME280;29430;52.924;-2.388;2023-05-12T20:59:22;100490.94;;;11.43;83.01
43804;BME280;29430;52.924;-2.388;2023-05-12T21:04:15;100485.25;;;11.32;83.35
43804;BME280;29430;52.924;-2.388;2023-05-12T21:09:07;100487.72;;;11.20;83.98
43804;BME280;29430;52.924;-2.388;2023-05-12T21:13:59;100478.94;;;11.11;83.76
43804;BME280;29430;52.924;-2.388;2023-05-12T21:18:51;100486.59;;;11.01;84.38
43804;BME280;29430;52.924;-2.388;2023-05-12T21:23:43;100479.03;;;10.89;84.69
43804;BME280;29430;52.924;-2.388;2023-05-12T21:28:35;100490.69;;;10.83;85.19
43804;BME280;29430;52.924;-2.388;2023-05-12T21:33:27;100498.97;;;10.75;85.43
43804;BME280;29430;52.924;-2.388;2023-05-12T21:38:20;100503.78;;;10.73;86.20
43804;BME280;29430;52.924;-2.388;2023-05-12T21:43:12;100504.16;;;10.70;86.45
43804;BME280;29430;52.924;-2.388;2023-05-12T21:48:04;100504.59;;;10.73;86.34
43804;BME280;29430;52.924;-2.388;2023-05-12T21:52:56;100502.28;;;10.70;86.33
43804;BME280;29430;52.924;-2.388;2023-05-12T21:57:47;100501.22;;;10.65;86.07
43804;BME280;29430;52.924;-2.388;2023-05-12T22:02:39;100511.19;;;10.57;86.48
43804;BME280;29430;52.924;-2.388;2023-05-12T22:07:31;100517.22;;;10.53;86.73
43804;BME280;29430;52.924;-2.388;2023-05-12T22:12:22;100519.53;;;10.56;87.01
43804;BME280;29430;52.924;-2.388;2023-05-12T22:17:14;100528.56;;;10.63;87.44
43804;BME280;29430;52.924;-2.388;2023-05-12T22:22:06;100508.97;;;10.68;86.78
43804;BME280;29430;52.924;-2.388;2023-05-12T22:26:58;100500.16;;;10.66;86.56
43804;BME280;29430;52.924;-2.388;2023-05-12T22:31:50;100510.19;;;10.65;87.08
43804;BME280;29430;52.924;-2.388;2023-05-12T22:36:42;100507.88;;;10.62;87.60
43804;BME280;29430;52.924;-2.388;2023-05-12T22:41:33;100516.84;;;10.63;87.46
43804;BME280;29430;52.924;-2.388;2023-05-12T22:46:26;100519.13;;;10.59;86.97
43804;BME280;29430;52.924;-2.388;2023-05-12T22:51:18;100510.34;;;10.57;88.32
43804;BME280;29430;52.924;-2.388;2023-05-12T22:56:10;100525.97;;;10.55;87.97
43804;BME280;29430;52.924;-2.388;2023-05-12T23:01:01;100531.56;;;10.47;87.95
43804;BME280;29430;52.924;-2.388;2023-05-12T23:05:53;100526.31;;;10.45;87.71
43804;BME280;29430;52.924;-2.388;2023-05-12T23:10:45;100523.19;;;10.42;88.06
43804;BME280;29430;52.924;-2.388;2023-05-12T23:15:36;100517.97;;;10.40;86.85
43804;BME280;29430;52.924;-2.388;2023-05-12T23:20:28;100519.94;;;10.31;87.52
43804;BME280;29430;52.924;-2.388;2023-05-12T23:25:20;100521.63;;;10.32;86.91
43804;BME280;29430;52.924;-2.388;2023-05-12T23:30:12;100515.09;;;10.27;87.21
43804;BME280;29430;52.924;-2.388;2023-05-12T23:35:04;100516.53;;;10.23;87.00
43804;BME280;29430;52.924;-2.388;2023-05-12T23:39:55;100505.38;;;10.11;86.80
43804;BME280;29430;52.924;-2.388;2023-05-12T23:44:47;100501.13;;;10.01;88.14
43804;BME280;29430;52.924;-2.388;2023-05-12T23:49:39;100511.53;;;9.98;87.83
43804;BME280;29430;52.924;-2.388;2023-05-12T23:54:30;100506.41;;;9.88;87.39
43804;BME280;29430;52.924;-2.388;2023-05-12T23:59:22;100508.50;;;9.86;87.12
